sensor_id;sensor_type;location;lat;lon;timestamp;P1;durP1;ratioP1;P2;durP2;ratioP2
17796;SDS011;55596;53.554;9.916;2023-07-02T00:01:17;9.07;;;3.80;;
17796;SDS011;55596;53.554;9.916;2023-07-02T00:03:44;12.77;;;3.60;;
17796;SDS011;55596;53.554;9.916;2023-07-02T00:06:11;12.03;;;3.90;;
17796;SDS011;55596;53.554;9.916;2023-07-02T00:08:43;14.17;;;4.00;;
17796;SDS011;55596;53.554;9.916;2023-07-02T00:11:10;13.87;;;4.20;;
17796;SDS011;55596;53.554;9.916;2023-07-02T00:13:39;10.03;;;4.30;;
17796;SDS011;55596;53.554;9.916;2023-07-02T00:16:06;12.47;;;4.63;;
17796;SDS011;55596;53.554;9.916;2023-07-02T00:18:34;11.23;;;4.70;;
17796;SDS011;55596;53.554;9.916;2023-07-02T00:21:01;7.90;;;4.53;;
17796;SDS011;55596;53.554;9.916;2023-07-02T00:23:28;12.17;;;4.67;;
17796;SDS011;55596;53.554;9.916;2023-07-02T00:25:56;12.80;;;4.87;;
17796;SDS011;55596;53.554;9.916;2023-07-02T00:28:24;13.87;;;5.10;;
17796;SDS011;55596;53.554;9.916;2023-07-02T00:30:52;10.70;;;4.70;;
17796;SDS011;55596;53.554;9.916;2023-07-02T00:33:20;9.53;;;4.60;;
17796;SDS011;55596;53.554;9.916;2023-07-02T00:35:47;10.40;;;4.73;;
17796;SDS011;55596;53.554;9.916;2023-07-02T00:38:14;17.70;;;5.10;;
17796;SDS011;55596;53.554;9.916;2023-07-02T00:40:41;19.93;;;5.30;;
17796;SDS011;55596;53.554;9.916;2023-07-02T00:43:08;13.73;;;5.27;;
17796;SDS011;55596;53.554;9.916;2023-07-02T00:45:38;10.53;;;4.13;;
17796;SDS011;55596;53.554;9.916;2023-07-02T00:48:06;10.57;;;4.60;;
17796;SDS011;55596;53.554;9.916;2023-07-02T00:50:33;8.97;;;4.47;;
17796;SDS011;55596;53.554;9.916;2023-07-02T00:53:01;11.40;;;4.50;;
17796;SDS011;55596;53.554;9.916;2023-07-02T00:55:28;8.87;;;4.13;;
17796;SDS011;55596;53.554;9.916;2023-07-02T00:57:55;12.73;;;4.63;;
17796;SDS011;55596;53.554;9.916;2023-07-02T01:00:22;8.97;;;4.47;;
17796;SDS011;55596;53.554;9.916;2023-07-02T01:02:53;9.33;;;4.10;;
17796;SDS011;55596;53.554;9.916;2023-07-02T01:05:24;7.77;;;4.20;;
17796;SDS011;55596;53.554;9.916;2023-07-02T01:07:51;10.70;;;4.30;;
17796;SDS011;55596;53.554;9.916;2023-07-02T01:10:18;7.40;;;4.10;;
17796;SDS011;55596;53.554;9.916;2023-07-02T01:12:45;12.50;;;3.93;;
17796;SDS011;55596;53.554;9.916;2023-07-02T01:15:14;11.07;;;4.33;;
17796;SDS011;55596;53.554;9.916;2023-07-02T01:17:41;8.67;;;3.90;;
17796;SDS011;55596;53.554;9.916;2023-07-02T01:20:11;8.67;;;3.97;;
17796;SDS011;55596;53.554;9.916;2023-07-02T01:22:38;10.07;;;4.57;;
17796;SDS011;55596;53.554;9.916;2023-07-02T01:25:06;7.47;;;3.97;;
17796;SDS011;55596;53.554;9.916;2023-07-02T01:27:34;8.97;;;4.17;;
17796;SDS011;55596;53.554;9.916;2023-07-02T01:30:02;11.43;;;4.93;;
17796;SDS011;55596;53.554;9.916;2023-07-02T01:32:29;9.97;;;4.47;;
17796;SDS011;55596;53.554;9.916;2023-07-02T01:34:57;10.37;;;4.53;;
17796;SDS011;55596;53.554;9.916;2023-07-02T01:37:27;10.63;;;4.00;;
17796;SDS011;55596;53.554;9.916;2023-07-02T01:40:02;11.73;;;4.67;;
17796;SDS011;55596;53.554;9.916;2023-07-02T01:42:31;10.17;;;4.10;;
17796;SDS011;55596;53.554;9.916;2023-07-02T01:44:58;8.07;;;4.20;;
17796;SDS011;55596;53.554;9.916;2023-07-02T01:47:25;10.47;;;4.40;;
17796;SDS011;55596;53.554;9.916;2023-07-02T01:49:52;10.03;;;4.10;;
17796;SDS011;55596;53.554;9.916;2023-07-02T01:52:20;11.63;;;4.20;;
17796;SDS011;55596;53.554;9.916;2023-07-02T01:54:48;8.07;;;3.87;;
17796;SDS011;55596;53.554;9.916;2023-07-02T01:57:17;6.47;;;3.83;;
17796;SDS011;55596;53.554;9.916;2023-07-02T01:59:44;11.57;;;4.33;;
17796;SDS011;55596;53.554;9.916;2023-07-02T02:02:11;9.57;;;4.87;;
17796;SDS011;55596;53.554;9.916;2023-07-02T02:04:38;16.07;;;5.13;;
17796;SDS011;55596;53.554;9.916;2023-07-02T02:07:05;11.80;;;5.47;;
17796;SDS011;55596;53.554;9.916;2023-07-02T02:09:33;14.87;;;5.20;;
17796;SDS011;55596;53.554;9.916;2023-07-02T02:12:01;13.90;;;5.40;;
17796;SDS011;55596;53.554;9.916;2023-07-02T02:14:28;9.70;;;5.20;;
17796;SDS011;55596;53.554;9.916;2023-07-02T02:16:55;11.70;;;5.53;;
17796;SDS011;55596;53.554;9.916;2023-07-02T02:19:22;12.50;;;5.40;;
17796;SDS011;55596;53.554;9.916;2023-07-02T02:21:50;9.10;;;5.13;;
17796;SDS011;55596;53.554;9.916;2023-07-02T02:24:17;9.83;;;6.17;;
17796;SDS011;55596;53.554;9.916;2023-07-02T02:26:44;11.90;;;5.87;;
17796;SDS011;55596;53.554;9.916;2023-07-02T02:29:12;12.73;;;6.23;;
17796;SDS011;55596;53.554;9.916;2023-07-02T02:31:40;12.30;;;6.50;;
17796;SDS011;55596;53.554;9.916;2023-07-02T02:34:07;16.00;;;6.20;;
17796;SDS011;55596;53.554;9.916;2023-07-02T02:36:34;11.43;;;6.67;;
17796;SDS011;55596;53.554;9.916;2023-07-02T02:39:01;14.63;;;6.30;;
17796;SDS011;55596;53.554;9.916;2023-07-02T02:41:28;9.20;;;6.20;;
17796;SDS011;55596;53.554;9.916;2023-07-02T02:43:55;11.50;;;6.27;;
17796;SDS011;55596;53.554;9.916;2023-07-02T02:46:24;16.80;;;6.17;;
17796;SDS011;55596;53.554;9.916;2023-07-02T02:48:51;10.67;;;6.10;;
17796;SDS011;55596;53.554;9.916;2023-07-02T02:51:21;12.70;;;6.23;;
17796;SDS011;55596;53.554;9.916;2023-07-02T02:53:51;14.93;;;6.60;;
17796;SDS011;55596;53.554;9.916;2023-07-02T02:56:19;15.60;;;6.47;;
17796;SDS011;55596;53.554;9.916;2023-07-02T02:58:46;10.73;;;5.70;;
17796;SDS011;55596;53.554;9.916;2023-07-02T03:01:13;12.90;;;6.40;;
17796;SDS011;55596;53.554;9.916;2023-07-02T03:03:42;11.70;;;6.37;;
17796;SDS011;55596;53.554;9.916;2023-07-02T03:06:11;10.90;;;6.67;;
17796;SDS011;55596;53.554;9.916;2023-07-02T03:08:39;20.87;;;6.73;;
17796;SDS011;55596;53.554;9.916;2023-07-02T03:11:06;14.23;;;6.50;;
17796;SDS011;55596;53.554;9.916;2023-07-02T03:13:33;14.57;;;6.00;;
17796;SDS011;55596;53.554;9.916;2023-07-02T03:16:00;16.13;;;6.57;;
17796;SDS011;55596;53.554;9.916;2023-07-02T03:18:28;11.00;;;6.50;;
17796;SDS011;55596;53.554;9.916;2023-07-02T03:20:56;18.07;;;6.30;;
17796;SDS011;55596;53.554;9.916;2023-07-02T03:23:23;15.07;;;6.50;;
17796;SDS011;55596;53.554;9.916;2023-07-02T03:25:50;14.37;;;6.00;;
17796;SDS011;55596;53.554;9.916;2023-07-02T03:28:17;9.60;;;5.80;;
17796;SDS011;55596;53.554;9.916;2023-07-02T03:30:44;14.03;;;6.17;;
17796;SDS011;55596;53.554;9.916;2023-07-02T03:33:12;11.60;;;5.83;;
17796;SDS011;55596;53.554;9.916;2023-07-02T03:35:39;15.50;;;5.80;;
17796;SDS011;55596;53.554;9.916;2023-07-02T03:38:07;13.33;;;6.13;;
17796;SDS011;55596;53.554;9.916;2023-07-02T03:40:34;16.87;;;5.83;;
17796;SDS011;55596;53.554;9.916;2023-07-02T03:43:01;10.90;;;5.57;;
17796;SDS011;55596;53.554;9.916;2023-07-02T03:45:28;10.60;;;4.87;;
17796;SDS011;55596;53.554;9.916;2023-07-02T03:47:56;13.20;;;5.50;;
17796;SDS011;55596;53.554;9.916;2023-07-02T03:50:23;15.67;;;5.90;;
17796;SDS011;55596;53.554;9.916;2023-07-02T03:52:50;13.93;;;5.50;;
17796;SDS011;55596;53.554;9.916;2023-07-02T03:55:18;15.03;;;6.03;;
17796;SDS011;55596;53.554;9.916;2023-07-02T03:57:46;16.83;;;5.00;;
17796;SDS011;55596;53.554;9.916;2023-07-02T04:00:13;15.93;;;5.53;;
17796;SDS011;55596;53.554;9.916;2023-07-02T04:02:40;12.50;;;5.63;;
17796;SDS011;55596;53.554;9.916;2023-07-02T04:05:07;15.47;;;5.53;;
17796;SDS011;55596;53.554;9.916;2023-07-02T04:07:35;12.20;;;5.60;;
17796;SDS011;55596;53.554;9.916;2023-07-02T04:10:02;17.47;;;5.40;;
17796;SDS011;55596;53.554;9.916;2023-07-02T04:12:30;17.23;;;5.77;;
17796;SDS011;55596;53.554;9.916;2023-07-02T04:14:58;14.23;;;5.33;;
17796;SDS011;55596;53.554;9.916;2023-07-02T04:17:25;12.30;;;5.10;;
17796;SDS011;55596;53.554;9.916;2023-07-02T04:19:53;16.57;;;6.27;;
17796;SDS011;55596;53.554;9.916;2023-07-02T04:22:20;12.47;;;5.80;;
17796;SDS011;55596;53.554;9.916;2023-07-02T04:24:48;13.57;;;5.53;;
17796;SDS011;55596;53.554;9.916;2023-07-02T04:27:15;15.30;;;6.03;;
17796;SDS011;55596;53.554;9.916;2023-07-02T04:29:44;15.00;;;5.50;;
17796;SDS011;55596;53.554;9.916;2023-07-02T04:32:12;15.13;;;5.17;;
17796;SDS011;55596;53.554;9.916;2023-07-02T04:34:39;17.87;;;6.20;;
17796;SDS011;55596;53.554;9.916;2023-07-02T04:37:06;20.00;;;6.20;;
17796;SDS011;55596;53.554;9.916;2023-07-02T04:39:33;15.67;;;5.53;;
17796;SDS011;55596;53.554;9.916;2023-07-02T04:42:00;12.77;;;5.40;;
17796;SDS011;55596;53.554;9.916;2023-07-02T04:44:28;15.67;;;6.00;;
17796;SDS011;55596;53.554;9.916;2023-07-02T04:46:57;20.57;;;6.00;;
17796;SDS011;55596;53.554;9.916;2023-07-02T04:49:24;17.63;;;6.17;;
17796;SDS011;55596;53.554;9.916;2023-07-02T04:51:51;16.63;;;6.40;;
17796;SDS011;55596;53.554;9.916;2023-07-02T04:54:19;14.80;;;5.83;;
17796;SDS011;55596;53.554;9.916;2023-07-02T04:56:49;17.43;;;6.10;;
17796;SDS011;55596;53.554;9.916;2023-07-02T04:59:20;17.43;;;6.10;;
17796;SDS011;55596;53.554;9.916;2023-07-02T05:01:47;17.90;;;6.57;;
17796;SDS011;55596;53.554;9.916;2023-07-02T05:04:16;18.20;;;6.50;;
17796;SDS011;55596;53.554;9.916;2023-07-02T05:06:50;17.10;;;6.03;;
17796;SDS011;55596;53.554;9.916;2023-07-02T05:09:17;21.63;;;6.60;;
17796;SDS011;55596;53.554;9.916;2023-07-02T05:11:44;17.00;;;6.73;;
17796;SDS011;55596;53.554;9.916;2023-07-02T05:14:11;24.07;;;6.93;;
17796;SDS011;55596;53.554;9.916;2023-07-02T05:16:39;15.23;;;6.37;;
17796;SDS011;55596;53.554;9.916;2023-07-02T05:19:06;17.90;;;6.53;;
17796;SDS011;55596;53.554;9.916;2023-07-02T05:21:37;18.93;;;6.70;;
17796;SDS011;55596;53.554;9.916;2023-07-02T05:24:05;19.07;;;6.53;;
17796;SDS011;55596;53.554;9.916;2023-07-02T05:26:32;18.83;;;6.77;;
17796;SDS011;55596;53.554;9.916;2023-07-02T05:29:00;17.80;;;6.73;;
17796;SDS011;55596;53.554;9.916;2023-07-02T05:31:30;21.23;;;7.17;;
17796;SDS011;55596;53.554;9.916;2023-07-02T05:34:00;21.97;;;6.80;;
17796;SDS011;55596;53.554;9.916;2023-07-02T05:36:27;18.87;;;6.77;;
17796;SDS011;55596;53.554;9.916;2023-07-02T05:39:01;18.63;;;6.97;;
17796;SDS011;55596;53.554;9.916;2023-07-02T05:41:28;22.40;;;6.80;;
17796;SDS011;55596;53.554;9.916;2023-07-02T05:43:55;20.90;;;6.80;;
17796;SDS011;55596;53.554;9.916;2023-07-02T05:46:23;16.63;;;6.93;;
17796;SDS011;55596;53.554;9.916;2023-07-02T05:48:51;27.03;;;7.87;;
17796;SDS011;55596;53.554;9.916;2023-07-02T05:51:21;24.47;;;7.30;;
17796;SDS011;55596;53.554;9.916;2023-07-02T05:53:48;17.10;;;7.33;;
17796;SDS011;55596;53.554;9.916;2023-07-02T05:56:18;22.97;;;7.57;;
17796;SDS011;55596;53.554;9.916;2023-07-02T05:58:46;20.37;;;8.00;;
17796;SDS011;55596;53.554;9.916;2023-07-02T06:01:13;19.73;;;7.47;;
17796;SDS011;55596;53.554;9.916;2023-07-02T06:03:41;31.17;;;7.77;;
17796;SDS011;55596;53.554;9.916;2023-07-02T06:06:10;22.03;;;7.77;;
17796;SDS011;55596;53.554;9.916;2023-07-02T06:08:37;21.13;;;7.90;;
17796;SDS011;55596;53.554;9.916;2023-07-02T06:11:04;21.13;;;8.20;;
17796;SDS011;55596;53.554;9.916;2023-07-02T06:13:34;22.07;;;7.90;;
17796;SDS011;55596;53.554;9.916;2023-07-02T06:16:01;20.83;;;7.73;;
17796;SDS011;55596;53.554;9.916;2023-07-02T06:18:29;25.77;;;8.37;;
17796;SDS011;55596;53.554;9.916;2023-07-02T06:20:56;21.67;;;7.80;;
17796;SDS011;55596;53.554;9.916;2023-07-02T06:23:24;23.40;;;7.70;;
17796;SDS011;55596;53.554;9.916;2023-07-02T06:25:52;22.40;;;7.70;;
17796;SDS011;55596;53.554;9.916;2023-07-02T06:28:24;25.50;;;8.20;;
17796;SDS011;55596;53.554;9.916;2023-07-02T06:30:52;23.67;;;8.17;;
17796;SDS011;55596;53.554;9.916;2023-07-02T06:33:19;27.43;;;8.10;;
17796;SDS011;55596;53.554;9.916;2023-07-02T06:35:48;20.67;;;7.43;;
17796;SDS011;55596;53.554;9.916;2023-07-02T06:38:16;22.00;;;7.87;;
17796;SDS011;55596;53.554;9.916;2023-07-02T06:40:45;21.17;;;7.47;;
17796;SDS011;55596;53.554;9.916;2023-07-02T06:43:16;21.60;;;8.23;;
17796;SDS011;55596;53.554;9.916;2023-07-02T06:45:43;20.87;;;7.73;;
17796;SDS011;55596;53.554;9.916;2023-07-02T06:48:12;23.77;;;8.97;;
17796;SDS011;55596;53.554;9.916;2023-07-02T06:50:43;24.77;;;7.93;;
17796;SDS011;55596;53.554;9.916;2023-07-02T06:53:11;23.63;;;6.97;;
17796;SDS011;55596;53.554;9.916;2023-07-02T06:55:38;18.10;;;7.83;;
17796;SDS011;55596;53.554;9.916;2023-07-02T06:58:06;27.93;;;7.33;;
17796;SDS011;55596;53.554;9.916;2023-07-02T07:00:33;28.80;;;8.10;;
17796;SDS011;55596;53.554;9.916;2023-07-02T07:03:01;22.97;;;7.80;;
17796;SDS011;55596;53.554;9.916;2023-07-02T07:05:30;26.93;;;8.60;;
17796;SDS011;55596;53.554;9.916;2023-07-02T07:07:58;24.00;;;7.63;;
17796;SDS011;55596;53.554;9.916;2023-07-02T07:10:25;19.33;;;7.40;;
17796;SDS011;55596;53.554;9.916;2023-07-02T07:12:53;23.40;;;7.63;;
17796;SDS011;55596;53.554;9.916;2023-07-02T07:15:20;23.53;;;7.73;;
17796;SDS011;55596;53.554;9.916;2023-07-02T07:17:47;22.13;;;7.70;;
17796;SDS011;55596;53.554;9.916;2023-07-02T07:20:14;21.23;;;7.43;;
17796;SDS011;55596;53.554;9.916;2023-07-02T07:22:42;26.00;;;7.87;;
17796;SDS011;55596;53.554;9.916;2023-07-02T07:25:10;26.33;;;8.73;;
17796;SDS011;55596;53.554;9.916;2023-07-02T07:27:37;24.83;;;7.83;;
17796;SDS011;55596;53.554;9.916;2023-07-02T07:30:04;21.90;;;8.37;;
17796;SDS011;55596;53.554;9.916;2023-07-02T07:32:32;21.43;;;7.40;;
17796;SDS011;55596;53.554;9.916;2023-07-02T07:34:59;16.97;;;7.43;;
17796;SDS011;55596;53.554;9.916;2023-07-02T07:37:26;21.20;;;7.10;;
17796;SDS011;55596;53.554;9.916;2023-07-02T07:39:55;21.70;;;7.50;;
17796;SDS011;55596;53.554;9.916;2023-07-02T07:42:31;20.23;;;7.53;;
17796;SDS011;55596;53.554;9.916;2023-07-02T07:44:58;20.33;;;7.67;;
17796;SDS011;55596;53.554;9.916;2023-07-02T07:47:25;17.57;;;7.00;;
17796;SDS011;55596;53.554;9.916;2023-07-02T07:49:52;18.87;;;7.40;;
17796;SDS011;55596;53.554;9.916;2023-07-02T07:52:20;18.03;;;7.57;;
17796;SDS011;55596;53.554;9.916;2023-07-02T07:54:47;25.57;;;7.93;;
17796;SDS011;55596;53.554;9.916;2023-07-02T07:57:15;19.13;;;7.87;;
17796;SDS011;55596;53.554;9.916;2023-07-02T07:59:42;18.23;;;6.90;;
17796;SDS011;55596;53.554;9.916;2023-07-02T08:02:10;19.00;;;7.13;;
17796;SDS011;55596;53.554;9.916;2023-07-02T08:04:37;19.23;;;7.13;;
17796;SDS011;55596;53.554;9.916;2023-07-02T08:07:04;16.67;;;6.63;;
17796;SDS011;55596;53.554;9.916;2023-07-02T08:09:34;16.33;;;7.27;;
17796;SDS011;55596;53.554;9.916;2023-07-02T08:12:01;17.73;;;6.73;;
17796;SDS011;55596;53.554;9.916;2023-07-02T08:14:30;13.80;;;6.67;;
17796;SDS011;55596;53.554;9.916;2023-07-02T08:16:58;20.67;;;6.87;;
17796;SDS011;55596;53.554;9.916;2023-07-02T08:19:25;15.37;;;6.90;;
17796;SDS011;55596;53.554;9.916;2023-07-02T08:21:52;17.30;;;6.60;;
17796;SDS011;55596;53.554;9.916;2023-07-02T08:24:20;16.10;;;6.50;;
17796;SDS011;55596;53.554;9.916;2023-07-02T08:26:47;14.87;;;6.00;;
17796;SDS011;55596;53.554;9.916;2023-07-02T08:29:14;16.10;;;6.33;;
17796;SDS011;55596;53.554;9.916;2023-07-02T08:31:43;14.23;;;5.17;;
17796;SDS011;55596;53.554;9.916;2023-07-02T08:34:10;14.30;;;5.10;;
17796;SDS011;55596;53.554;9.916;2023-07-02T08:36:37;16.93;;;5.60;;
17796;SDS011;55596;53.554;9.916;2023-07-02T08:39:06;17.63;;;6.00;;
17796;SDS011;55596;53.554;9.916;2023-07-02T08:41:42;16.70;;;5.37;;
17796;SDS011;55596;53.554;9.916;2023-07-02T08:44:12;13.07;;;4.53;;
17796;SDS011;55596;53.554;9.916;2023-07-02T08:46:39;11.80;;;4.50;;
17796;SDS011;55596;53.554;9.916;2023-07-02T08:49:09;13.20;;;4.97;;
17796;SDS011;55596;53.554;9.916;2023-07-02T08:51:36;9.20;;;4.70;;
17796;SDS011;55596;53.554;9.916;2023-07-02T08:54:04;9.60;;;4.30;;
17796;SDS011;55596;53.554;9.916;2023-07-02T08:56:31;14.50;;;4.73;;
17796;SDS011;55596;53.554;9.916;2023-07-02T08:58:58;12.30;;;5.13;;
17796;SDS011;55596;53.554;9.916;2023-07-02T09:01:25;17.60;;;4.77;;
17796;SDS011;55596;53.554;9.916;2023-07-02T09:03:57;11.83;;;4.70;;
17796;SDS011;55596;53.554;9.916;2023-07-02T09:06:28;11.23;;;4.87;;
17796;SDS011;55596;53.554;9.916;2023-07-02T09:09:03;11.97;;;4.33;;
17796;SDS011;55596;53.554;9.916;2023-07-02T09:11:34;11.80;;;4.53;;
17796;SDS011;55596;53.554;9.916;2023-07-02T09:14:01;14.03;;;4.73;;
17796;SDS011;55596;53.554;9.916;2023-07-02T09:16:29;11.57;;;4.50;;
17796;SDS011;55596;53.554;9.916;2023-07-02T09:19:00;12.87;;;4.40;;
17796;SDS011;55596;53.554;9.916;2023-07-02T09:21:37;10.13;;;4.70;;
17796;SDS011;55596;53.554;9.916;2023-07-02T09:24:11;17.97;;;5.13;;
17796;SDS011;55596;53.554;9.916;2023-07-02T09:26:41;22.80;;;5.77;;
17796;SDS011;55596;53.554;9.916;2023-07-02T09:29:08;19.20;;;5.43;;
17796;SDS011;55596;53.554;9.916;2023-07-02T09:31:42;14.37;;;5.13;;
17796;SDS011;55596;53.554;9.916;2023-07-02T09:34:10;13.10;;;4.97;;
17796;SDS011;55596;53.554;9.916;2023-07-02T09:36:38;13.33;;;5.13;;
17796;SDS011;55596;53.554;9.916;2023-07-02T09:39:06;16.53;;;5.67;;
17796;SDS011;55596;53.554;9.916;2023-07-02T09:41:35;14.27;;;4.80;;
17796;SDS011;55596;53.554;9.916;2023-07-02T09:44:03;13.93;;;5.23;;
17796;SDS011;55596;53.554;9.916;2023-07-02T09:46:30;11.70;;;4.63;;
17796;SDS011;55596;53.554;9.916;2023-07-02T09:48:59;16.60;;;5.23;;
17796;SDS011;55596;53.554;9.916;2023-07-02T09:51:27;12.17;;;4.90;;
17796;SDS011;55596;53.554;9.916;2023-07-02T09:53:55;13.20;;;5.03;;
17796;SDS011;55596;53.554;9.916;2023-07-02T09:56:23;12.20;;;4.03;;
17796;SDS011;55596;53.554;9.916;2023-07-02T09:58:50;12.37;;;4.27;;
17796;SDS011;55596;53.554;9.916;2023-07-02T10:01:17;8.17;;;3.63;;
17796;SDS011;55596;53.554;9.916;2023-07-02T10:03:45;12.93;;;4.40;;
17796;SDS011;55596;53.554;9.916;2023-07-02T10:06:12;12.03;;;4.37;;
17796;SDS011;55596;53.554;9.916;2023-07-02T10:08:40;10.00;;;3.90;;
17796;SDS011;55596;53.554;9.916;2023-07-02T10:11:09;9.80;;;3.90;;
17796;SDS011;55596;53.554;9.916;2023-07-02T10:13:38;12.93;;;4.37;;
17796;SDS011;55596;53.554;9.916;2023-07-02T10:16:06;13.57;;;4.10;;
17796;SDS011;55596;53.554;9.916;2023-07-02T10:18:36;11.07;;;4.70;;
17796;SDS011;55596;53.554;9.916;2023-07-02T10:21:13;14.97;;;4.23;;
17796;SDS011;55596;53.554;9.916;2023-07-02T10:23:40;12.87;;;4.43;;
17796;SDS011;55596;53.554;9.916;2023-07-02T10:26:16;10.40;;;4.30;;
17796;SDS011;55596;53.554;9.916;2023-07-02T10:28:55;11.37;;;3.90;;
17796;SDS011;55596;53.554;9.916;2023-07-02T10:31:22;9.67;;;3.83;;
17796;SDS011;55596;53.554;9.916;2023-07-02T10:33:50;12.40;;;4.33;;
17796;SDS011;55596;53.554;9.916;2023-07-02T10:36:17;9.03;;;3.77;;
17796;SDS011;55596;53.554;9.916;2023-07-02T10:38:45;15.23;;;4.30;;
17796;SDS011;55596;53.554;9.916;2023-07-02T10:41:22;11.10;;;4.50;;
17796;SDS011;55596;53.554;9.916;2023-07-02T10:43:51;16.10;;;5.03;;
17796;SDS011;55596;53.554;9.916;2023-07-02T10:46:20;12.47;;;4.37;;
17796;SDS011;55596;53.554;9.916;2023-07-02T10:48:51;15.30;;;4.20;;
17796;SDS011;55596;53.554;9.916;2023-07-02T10:51:19;12.13;;;4.10;;
17796;SDS011;55596;53.554;9.916;2023-07-02T10:53:55;11.47;;;3.90;;
17796;SDS011;55596;53.554;9.916;2023-07-02T10:56:23;14.83;;;3.90;;
17796;SDS011;55596;53.554;9.916;2023-07-02T10:58:52;11.57;;;3.53;;
17796;SDS011;55596;53.554;9.916;2023-07-02T11:01:24;12.33;;;3.60;;
17796;SDS011;55596;53.554;9.916;2023-07-02T11:03:58;13.70;;;3.63;;
17796;SDS011;55596;53.554;9.916;2023-07-02T11:06:25;12.30;;;3.33;;
17796;SDS011;55596;53.554;9.916;2023-07-02T11:08:52;14.97;;;4.07;;
17796;SDS011;55596;53.554;9.916;2023-07-02T11:11:21;8.33;;;3.40;;
17796;SDS011;55596;53.554;9.916;2023-07-02T11:13:50;7.43;;;3.03;;
17796;SDS011;55596;53.554;9.916;2023-07-02T11:16:23;8.50;;;3.17;;
17796;SDS011;55596;53.554;9.916;2023-07-02T11:18:51;10.80;;;3.57;;
17796;SDS011;55596;53.554;9.916;2023-07-02T11:21:19;7.73;;;2.97;;
17796;SDS011;55596;53.554;9.916;2023-07-02T11:23:46;12.63;;;3.53;;
17796;SDS011;55596;53.554;9.916;2023-07-02T11:26:13;8.33;;;3.30;;
17796;SDS011;55596;53.554;9.916;2023-07-02T11:28:48;9.20;;;2.97;;
17796;SDS011;55596;53.554;9.916;2023-07-02T11:31:25;9.73;;;3.10;;
17796;SDS011;55596;53.554;9.916;2023-07-02T11:33:54;7.40;;;2.77;;
17796;SDS011;55596;53.554;9.916;2023-07-02T11:36:21;8.65;;;2.92;;
17796;SDS011;55596;53.554;9.916;2023-07-02T11:38:50;10.98;;;3.22;;
17796;SDS011;55596;53.554;9.916;2023-07-02T11:41:18;6.50;;;2.97;;
17796;SDS011;55596;53.554;9.916;2023-07-02T11:43:45;10.82;;;2.70;;
17796;SDS011;55596;53.554;9.916;2023-07-02T11:46:14;6.68;;;2.60;;
17796;SDS011;55596;53.554;9.916;2023-07-02T11:48:42;7.22;;;2.80;;
17796;SDS011;55596;53.554;9.916;2023-07-02T11:51:09;9.35;;;2.47;;
17796;SDS011;55596;53.554;9.916;2023-07-02T11:53:37;5.45;;;2.35;;
17796;SDS011;55596;53.554;9.916;2023-07-02T11:56:04;7.72;;;2.20;;
17796;SDS011;55596;53.554;9.916;2023-07-02T11:58:31;7.03;;;2.50;;
17796;SDS011;55596;53.554;9.916;2023-07-02T12:00:59;7.75;;;2.22;;
17796;SDS011;55596;53.554;9.916;2023-07-02T12:03:26;7.03;;;2.33;;
17796;SDS011;55596;53.554;9.916;2023-07-02T12:05:56;9.90;;;2.50;;
17796;SDS011;55596;53.554;9.916;2023-07-02T12:08:25;5.77;;;2.07;;
17796;SDS011;55596;53.554;9.916;2023-07-02T12:10:53;8.67;;;2.63;;
17796;SDS011;55596;53.554;9.916;2023-07-02T12:13:20;8.40;;;2.30;;
17796;SDS011;55596;53.554;9.916;2023-07-02T12:15:47;7.60;;;2.42;;
17796;SDS011;55596;53.554;9.916;2023-07-02T12:18:16;6.18;;;2.80;;
17796;SDS011;55596;53.554;9.916;2023-07-02T12:20:44;6.15;;;2.75;;
17796;SDS011;55596;53.554;9.916;2023-07-02T12:23:13;13.20;;;2.40;;
17796;SDS011;55596;53.554;9.916;2023-07-02T12:25:40;6.60;;;2.20;;
17796;SDS011;55596;53.554;9.916;2023-07-02T12:28:07;6.63;;;2.60;;
17796;SDS011;55596;53.554;9.916;2023-07-02T12:30:34;6.18;;;2.40;;
17796;SDS011;55596;53.554;9.916;2023-07-02T12:33:01;9.57;;;2.47;;
17796;SDS011;55596;53.554;9.916;2023-07-02T12:35:29;8.82;;;2.85;;
17796;SDS011;55596;53.554;9.916;2023-07-02T12:37:56;7.30;;;2.40;;
17796;SDS011;55596;53.554;9.916;2023-07-02T12:40:24;5.68;;;2.33;;
17796;SDS011;55596;53.554;9.916;2023-07-02T12:42:52;8.73;;;2.85;;
17796;SDS011;55596;53.554;9.916;2023-07-02T12:45:19;6.28;;;2.75;;
17796;SDS011;55596;53.554;9.916;2023-07-02T12:47:46;6.32;;;2.33;;
17796;SDS011;55596;53.554;9.916;2023-07-02T12:50:13;9.00;;;2.60;;
17796;SDS011;55596;53.554;9.916;2023-07-02T12:52:40;8.57;;;2.50;;
17796;SDS011;55596;53.554;9.916;2023-07-02T12:55:08;11.18;;;2.55;;
17796;SDS011;55596;53.554;9.916;2023-07-02T12:57:36;6.35;;;2.25;;
17796;SDS011;55596;53.554;9.916;2023-07-02T13:00:04;10.07;;;2.20;;
17796;SDS011;55596;53.554;9.916;2023-07-02T13:02:32;8.75;;;2.78;;
17796;SDS011;55596;53.554;9.916;2023-07-02T13:04:59;7.55;;;2.33;;
17796;SDS011;55596;53.554;9.916;2023-07-02T13:07:26;4.80;;;2.28;;
17796;SDS011;55596;53.554;9.916;2023-07-02T13:09:55;7.63;;;2.60;;
17796;SDS011;55596;53.554;9.916;2023-07-02T13:12:22;7.20;;;2.33;;
17796;SDS011;55596;53.554;9.916;2023-07-02T13:14:51;6.00;;;2.22;;
17796;SDS011;55596;53.554;9.916;2023-07-02T13:17:18;7.75;;;2.30;;
17796;SDS011;55596;53.554;9.916;2023-07-02T13:19:45;6.25;;;2.20;;
17796;SDS011;55596;53.554;9.916;2023-07-02T13:22:13;9.20;;;2.17;;
17796;SDS011;55596;53.554;9.916;2023-07-02T13:24:41;5.22;;;2.05;;
17796;SDS011;55596;53.554;9.916;2023-07-02T13:27:11;6.13;;;2.38;;
17796;SDS011;55596;53.554;9.916;2023-07-02T13:29:39;8.23;;;2.20;;
17796;SDS011;55596;53.554;9.916;2023-07-02T13:32:08;10.70;;;2.33;;
17796;SDS011;55596;53.554;9.916;2023-07-02T13:34:36;6.13;;;1.90;;
17796;SDS011;55596;53.554;9.916;2023-07-02T13:37:04;8.43;;;2.10;;
17796;SDS011;55596;53.554;9.916;2023-07-02T13:39:31;9.60;;;2.20;;
17796;SDS011;55596;53.554;9.916;2023-07-02T13:41:58;7.97;;;2.30;;
17796;SDS011;55596;53.554;9.916;2023-07-02T13:44:26;9.35;;;2.83;;
17796;SDS011;55596;53.554;9.916;2023-07-02T13:46:53;9.13;;;2.42;;
17796;SDS011;55596;53.554;9.916;2023-07-02T13:49:21;10.43;;;2.20;;
17796;SDS011;55596;53.554;9.916;2023-07-02T13:51:48;6.03;;;3.03;;
17796;SDS011;55596;53.554;9.916;2023-07-02T13:54:16;6.40;;;2.03;;
17796;SDS011;55596;53.554;9.916;2023-07-02T13:56:45;8.73;;;2.00;;
17796;SDS011;55596;53.554;9.916;2023-07-02T13:59:14;7.97;;;2.33;;
17796;SDS011;55596;53.554;9.916;2023-07-02T14:01:42;6.80;;;2.35;;
17796;SDS011;55596;53.554;9.916;2023-07-02T14:04:09;8.88;;;2.40;;
17796;SDS011;55596;53.554;9.916;2023-07-02T14:06:37;8.32;;;2.35;;
17796;SDS011;55596;53.554;9.916;2023-07-02T14:09:04;9.20;;;2.70;;
17796;SDS011;55596;53.554;9.916;2023-07-02T14:11:32;13.15;;;2.42;;
17796;SDS011;55596;53.554;9.916;2023-07-02T14:13:59;11.15;;;2.60;;
17796;SDS011;55596;53.554;9.916;2023-07-02T14:16:28;5.85;;;2.05;;
17796;SDS011;55596;53.554;9.916;2023-07-02T14:18:55;7.57;;;2.65;;
17796;SDS011;55596;53.554;9.916;2023-07-02T14:21:22;7.40;;;2.40;;
17796;SDS011;55596;53.554;9.916;2023-07-02T14:23:49;6.78;;;2.38;;
17796;SDS011;55596;53.554;9.916;2023-07-02T14:26:16;7.63;;;2.40;;
17796;SDS011;55596;53.554;9.916;2023-07-02T14:28:43;6.82;;;2.38;;
17796;SDS011;55596;53.554;9.916;2023-07-02T14:31:11;9.05;;;2.70;;
17796;SDS011;55596;53.554;9.916;2023-07-02T14:33:39;4.32;;;1.98;;
17796;SDS011;55596;53.554;9.916;2023-07-02T14:36:06;5.80;;;1.80;;
17796;SDS011;55596;53.554;9.916;2023-07-02T14:38:34;10.35;;;2.00;;
17796;SDS011;55596;53.554;9.916;2023-07-02T14:41:01;6.22;;;2.40;;
17796;SDS011;55596;53.554;9.916;2023-07-02T14:43:29;5.65;;;2.08;;